sensor_id;sensor_type;location;lat;lon;timestamp;P1;durP1;ratioP1;P2;durP2;ratioP2
41946;SDS011;27638;42.184;24.848;2022-10-28T00:02:25;19.88;;;9.75;;
41946;SDS011;27638;42.184;24.848;2022-10-28T00:04:50;27.80;;;10.32;;
41946;SDS011;27638;42.184;24.848;2022-10-28T00:07:15;27.33;;;10.27;;
41946;SDS011;27638;42.184;24.848;2022-10-28T00:09:41;18.05;;;10.27;;
41946;SDS011;27638;42.184;24.848;2022-10-28T00:12:06;24.60;;;10.55;;
41946;SDS011;27638;42.184;24.848;2022-10-28T00:14:32;23.17;;;10.63;;
41946;SDS011;27638;42.184;24.848;2022-10-28T00:16:57;23.95;;;10.77;;
41946;SDS011;27638;42.184;24.848;2022-10-28T00:19:23;26.05;;;10.50;;
41946;SDS011;27638;42.184;24.848;2022-10-28T00:21:48;25.15;;;10.13;;
41946;SDS011;27638;42.184;24.848;2022-10-28T00:24:14;21.25;;;10.07;;
41946;SDS011;27638;42.184;24.848;2022-10-28T00:26:40;23.30;;;10.65;;
41946;SDS011;27638;42.184;24.848;2022-10-28T00:29:13;18.95;;;10.45;;
41946;SDS011;27638;42.184;24.848;2022-10-28T00:31:40;35.97;;;13.13;;
41946;SDS011;27638;42.184;24.848;2022-10-28T00:34:06;26.25;;;10.02;;
41946;SDS011;27638;42.184;24.848;2022-10-28T00:36:35;27.33;;;10.90;;
41946;SDS011;27638;42.184;24.848;2022-10-28T00:39:08;22.77;;;10.23;;
41946;SDS011;27638;42.184;24.848;2022-10-28T00:41:37;22.00;;;9.38;;
41946;SDS011;27638;42.184;24.848;2022-10-28T00:47:05;19.05;;;9.88;;
41946;SDS011;27638;42.184;24.848;2022-10-28T00:49:38;22.27;;;9.68;;
41946;SDS011;27638;42.184;24.848;2022-10-28T00:52:15;19.30;;;9.30;;
41946;SDS011;27638;42.184;24.848;2022-10-28T00:54:45;20.42;;;9.48;;
41946;SDS011;27638;42.184;24.848;2022-10-28T00:57:13;23.42;;;9.68;;
41946;SDS011;27638;42.184;24.848;2022-10-28T00:59:44;24.98;;;10.00;;
41946;SDS011;27638;42.184;24.848;2022-10-28T01:02:12;18.42;;;8.15;;
41946;SDS011;27638;42.184;24.848;2022-10-28T01:04:38;18.88;;;7.97;;
41946;SDS011;27638;42.184;24.848;2022-10-28T01:07:04;12.93;;;7.70;;
41946;SDS011;27638;42.184;24.848;2022-10-28T01:09:30;14.30;;;7.15;;
41946;SDS011;27638;42.184;24.848;2022-10-28T01:22:37;16.95;;;6.63;;
41946;SDS011;27638;42.184;24.848;2022-10-28T01:28:05;17.77;;;7.18;;
41946;SDS011;27638;42.184;24.848;2022-10-28T01:36:37;13.48;;;5.97;;
41946;SDS011;27638;42.184;24.848;2022-10-28T01:42:41;17.45;;;5.82;;
41946;SDS011;27638;42.184;24.848;2022-10-28T01:45:18;14.90;;;6.05;;
41946;SDS011;27638;42.184;24.848;2022-10-28T01:53:13;15.88;;;6.85;;
41946;SDS011;27638;42.184;24.848;2022-10-28T01:55:44;15.27;;;6.53;;
41946;SDS011;27638;42.184;24.848;2022-10-28T01:58:14;17.92;;;6.68;;
41946;SDS011;27638;42.184;24.848;2022-10-28T02:00:44;15.65;;;7.07;;
41946;SDS011;27638;42.184;24.848;2022-10-28T02:03:10;17.92;;;7.38;;
41946;SDS011;27638;42.184;24.848;2022-10-28T02:08:12;19.48;;;7.40;;
41946;SDS011;27638;42.184;24.848;2022-10-28T02:13:27;23.00;;;8.02;;
41946;SDS011;27638;42.184;24.848;2022-10-28T02:16:15;15.40;;;7.35;;
41946;SDS011;27638;42.184;24.848;2022-10-28T02:27:20;12.65;;;7.50;;
41946;SDS011;27638;42.184;24.848;2022-10-28T02:32:47;21.15;;;8.40;;
41946;SDS011;27638;42.184;24.848;2022-10-28T02:35:17;19.37;;;9.10;;
41946;SDS011;27638;42.184;24.848;2022-10-28T02:37:51;28.55;;;9.77;;
41946;SDS011;27638;42.184;24.848;2022-10-28T02:40:19;23.88;;;10.10;;
41946;SDS011;27638;42.184;24.848;2022-10-28T02:42:49;27.80;;;10.77;;
41946;SDS011;27638;42.184;24.848;2022-10-28T02:45:22;20.10;;;7.65;;
41946;SDS011;27638;42.184;24.848;2022-10-28T02:47:59;29.23;;;10.80;;
41946;SDS011;27638;42.184;24.848;2022-10-28T02:50:30;30.83;;;10.38;;
41946;SDS011;27638;42.184;24.848;2022-10-28T02:53:00;23.90;;;9.65;;
41946;SDS011;27638;42.184;24.848;2022-10-28T02:55:33;24.65;;;8.15;;
41946;SDS011;27638;42.184;24.848;2022-10-28T02:58:04;17.33;;;7.28;;
41946;SDS011;27638;42.184;24.848;2022-10-28T03:00:30;19.35;;;7.57;;
41946;SDS011;27638;42.184;24.848;2022-10-28T03:02:56;22.92;;;7.07;;
41946;SDS011;27638;42.184;24.848;2022-10-28T03:05:21;22.73;;;8.05;;
41946;SDS011;27638;42.184;24.848;2022-10-28T03:07:47;23.95;;;7.13;;
41946;SDS011;27638;42.184;24.848;2022-10-28T03:10:12;17.58;;;7.45;;
41946;SDS011;27638;42.184;24.848;2022-10-28T03:12:37;17.17;;;7.25;;
41946;SDS011;27638;42.184;24.848;2022-10-28T03:15:03;15.43;;;6.35;;
41946;SDS011;27638;42.184;24.848;2022-10-28T03:17:29;25.80;;;7.40;;
41946;SDS011;27638;42.184;24.848;2022-10-28T03:19:54;20.02;;;6.18;;
41946;SDS011;27638;42.184;24.848;2022-10-28T03:22:19;14.82;;;6.75;;
41946;SDS011;27638;42.184;24.848;2022-10-28T03:24:45;20.02;;;8.00;;
41946;SDS011;27638;42.184;24.848;2022-10-28T03:27:10;16.17;;;7.22;;
41946;SDS011;27638;42.184;24.848;2022-10-28T03:29:36;18.73;;;7.15;;
41946;SDS011;27638;42.184;24.848;2022-10-28T03:32:01;18.00;;;8.20;;
41946;SDS011;27638;42.184;24.848;2022-10-28T03:34:26;17.80;;;7.05;;
41946;SDS011;27638;42.184;24.848;2022-10-28T03:36:52;20.65;;;8.27;;
41946;SDS011;27638;42.184;24.848;2022-10-28T03:39:17;17.75;;;7.70;;
41946;SDS011;27638;42.184;24.848;2022-10-28T03:41:43;15.15;;;7.03;;
41946;SDS011;27638;42.184;24.848;2022-10-28T03:44:08;17.15;;;6.95;;
41946;SDS011;27638;42.184;24.848;2022-10-28T03:46:33;20.05;;;6.60;;
41946;SDS011;27638;42.184;24.848;2022-10-28T03:48:59;17.55;;;6.72;;
41946;SDS011;27638;42.184;24.848;2022-10-28T03:51:24;17.02;;;6.85;;
41946;SDS011;27638;42.184;24.848;2022-10-28T03:53:50;19.42;;;7.15;;
41946;SDS011;27638;42.184;24.848;2022-10-28T03:56:15;21.27;;;6.38;;
41946;SDS011;27638;42.184;24.848;2022-10-28T03:58:40;17.77;;;6.05;;
41946;SDS011;27638;42.184;24.848;2022-10-28T04:01:06;21.20;;;7.20;;
41946;SDS011;27638;42.184;24.848;2022-10-28T04:03:31;19.65;;;8.50;;
41946;SDS011;27638;42.184;24.848;2022-10-28T04:05:57;23.10;;;7.40;;
41946;SDS011;27638;42.184;24.848;2022-10-28T04:08:22;20.38;;;7.57;;
41946;SDS011;27638;42.184;24.848;2022-10-28T04:10:48;22.13;;;7.32;;
41946;SDS011;27638;42.184;24.848;2022-10-28T04:13:13;18.42;;;7.43;;
41946;SDS011;27638;42.184;24.848;2022-10-28T04:15:40;28.02;;;8.38;;
41946;SDS011;27638;42.184;24.848;2022-10-28T04:18:05;19.02;;;8.13;;
41946;SDS011;27638;42.184;24.848;2022-10-28T04:20:31;51.40;;;18.85;;
41946;SDS011;27638;42.184;24.848;2022-10-28T04:22:57;46.70;;;14.57;;
41946;SDS011;27638;42.184;24.848;2022-10-28T04:25:23;32.53;;;11.02;;
41946;SDS011;27638;42.184;24.848;2022-10-28T04:27:49;26.10;;;8.50;;
41946;SDS011;27638;42.184;24.848;2022-10-28T04:30:15;32.10;;;8.50;;
41946;SDS011;27638;42.184;24.848;2022-10-28T04:32:41;24.60;;;9.13;;
41946;SDS011;27638;42.184;24.848;2022-10-28T04:35:08;27.33;;;9.73;;
41946;SDS011;27638;42.184;24.848;2022-10-28T04:37:34;28.77;;;8.85;;
41946;SDS011;27638;42.184;24.848;2022-10-28T04:40:00;30.92;;;8.82;;
41946;SDS011;27638;42.184;24.848;2022-10-28T04:42:25;37.30;;;9.88;;
41946;SDS011;27638;42.184;24.848;2022-10-28T04:44:51;23.42;;;8.48;;
41946;SDS011;27638;42.184;24.848;2022-10-28T04:47:16;28.23;;;9.35;;
41946;SDS011;27638;42.184;24.848;2022-10-28T04:49:42;30.77;;;8.80;;
41946;SDS011;27638;42.184;24.848;2022-10-28T04:52:08;25.70;;;8.85;;
41946;SDS011;27638;42.184;24.848;2022-10-28T04:54:34;40.20;;;9.70;;
41946;SDS011;27638;42.184;24.848;2022-10-28T04:56:59;24.67;;;8.93;;
41946;SDS011;27638;42.184;24.848;2022-10-28T04:59:25;31.75;;;8.65;;
41946;SDS011;27638;42.184;24.848;2022-10-28T05:01:50;42.50;;;9.30;;
41946;SDS011;27638;42.184;24.848;2022-10-28T05:04:16;26.63;;;8.60;;
41946;SDS011;27638;42.184;24.848;2022-10-28T05:06:41;26.92;;;8.45;;
41946;SDS011;27638;42.184;24.848;2022-10-28T05:09:06;25.50;;;7.95;;
41946;SDS011;27638;42.184;24.848;2022-10-28T05:11:32;27.73;;;7.47;;
41946;SDS011;27638;42.184;24.848;2022-10-28T05:13:57;26.27;;;8.77;;
41946;SDS011;27638;42.184;24.848;2022-10-28T05:16:23;41.10;;;10.20;;
41946;SDS011;27638;42.184;24.848;2022-10-28T05:18:48;47.95;;;11.13;;
41946;SDS011;27638;42.184;24.848;2022-10-28T05:21:13;45.13;;;11.18;;
41946;SDS011;27638;42.184;24.848;2022-10-28T05:23:39;35.70;;;11.43;;
41946;SDS011;27638;42.184;24.848;2022-10-28T05:26:04;43.30;;;12.00;;
41946;SDS011;27638;42.184;24.848;2022-10-28T05:28:30;34.10;;;13.85;;
41946;SDS011;27638;42.184;24.848;2022-10-28T05:30:55;45.15;;;15.80;;
41946;SDS011;27638;42.184;24.848;2022-10-28T05:33:21;42.85;;;14.93;;
41946;SDS011;27638;42.184;24.848;2022-10-28T05:35:47;40.55;;;15.75;;
41946;SDS011;27638;42.184;24.848;2022-10-28T05:38:12;37.40;;;13.52;;
41946;SDS011;27638;42.184;24.848;2022-10-28T05:40:38;36.17;;;14.45;;
41946;SDS011;27638;42.184;24.848;2022-10-28T05:43:03;36.88;;;14.55;;
41946;SDS011;27638;42.184;24.848;2022-10-28T05:45:28;39.13;;;14.07;;
41946;SDS011;27638;42.184;24.848;2022-10-28T05:47:54;39.83;;;13.30;;
41946;SDS011;27638;42.184;24.848;2022-10-28T05:50:20;34.97;;;13.25;;
41946;SDS011;27638;42.184;24.848;2022-10-28T05:52:46;30.88;;;11.43;;
41946;SDS011;27638;42.184;24.848;2022-10-28T05:55:16;33.50;;;15.05;;
41946;SDS011;27638;42.184;24.848;2022-10-28T05:57:46;30.50;;;14.85;;
41946;SDS011;27638;42.184;24.848;2022-10-28T06:00:16;29.17;;;8.55;;
41946;SDS011;27638;42.184;24.848;2022-10-28T06:02:43;26.50;;;10.00;;
41946;SDS011;27638;42.184;24.848;2022-10-28T06:05:09;25.63;;;8.55;;
41946;SDS011;27638;42.184;24.848;2022-10-28T06:07:35;23.52;;;7.82;;
41946;SDS011;27638;42.184;24.848;2022-10-28T06:10:01;37.05;;;12.15;;
41946;SDS011;27638;42.184;24.848;2022-10-28T06:12:28;25.05;;;8.40;;
41946;SDS011;27638;42.184;24.848;2022-10-28T06:14:53;19.90;;;7.38;;
41946;SDS011;27638;42.184;24.848;2022-10-28T06:17:18;17.83;;;6.95;;
41946;SDS011;27638;42.184;24.848;2022-10-28T06:19:44;23.10;;;8.43;;
41946;SDS011;27638;42.184;24.848;2022-10-28T06:22:10;30.48;;;7.88;;
41946;SDS011;27638;42.184;24.848;2022-10-28T06:24:35;33.65;;;7.68;;
41946;SDS011;27638;42.184;24.848;2022-10-28T06:27:01;23.65;;;7.93;;
41946;SDS011;27638;42.184;24.848;2022-10-28T06:29:26;22.52;;;7.82;;
41946;SDS011;27638;42.184;24.848;2022-10-28T06:31:52;25.35;;;8.90;;
41946;SDS011;27638;42.184;24.848;2022-10-28T06:34:17;20.10;;;8.32;;
41946;SDS011;27638;42.184;24.848;2022-10-28T06:36:42;27.55;;;9.02;;
41946;SDS011;27638;42.184;24.848;2022-10-28T06:39:08;21.27;;;8.20;;
41946;SDS011;27638;42.184;24.848;2022-10-28T06:41:33;19.90;;;8.68;;
41946;SDS011;27638;42.184;24.848;2022-10-28T06:43:59;27.35;;;7.40;;
41946;SDS011;27638;42.184;24.848;2022-10-28T06:46:25;20.90;;;7.18;;
41946;SDS011;27638;42.184;24.848;2022-10-28T06:48:52;28.20;;;8.52;;
41946;SDS011;27638;42.184;24.848;2022-10-28T06:51:18;19.13;;;8.10;;
41946;SDS011;27638;42.184;24.848;2022-10-28T06:53:47;22.85;;;8.60;;
41946;SDS011;27638;42.184;24.848;2022-10-28T06:56:13;15.43;;;6.80;;
41946;SDS011;27638;42.184;24.848;2022-10-28T06:58:38;20.58;;;7.35;;
41946;SDS011;27638;42.184;24.848;2022-10-28T07:01:04;18.25;;;8.32;;
41946;SDS011;27638;42.184;24.848;2022-10-28T07:03:29;15.93;;;6.38;;
41946;SDS011;27638;42.184;24.848;2022-10-28T07:05:56;20.13;;;7.10;;
41946;SDS011;27638;42.184;24.848;2022-10-28T07:08:22;17.17;;;6.90;;
41946;SDS011;27638;42.184;24.848;2022-10-28T07:10:54;17.80;;;6.85;;
41946;SDS011;27638;42.184;24.848;2022-10-28T07:13:21;16.60;;;7.28;;
41946;SDS011;27638;42.184;24.848;2022-10-28T07:15:59;13.23;;;6.88;;
41946;SDS011;27638;42.184;24.848;2022-10-28T07:18:26;18.70;;;8.32;;
41946;SDS011;27638;42.184;24.848;2022-10-28T07:20:56;18.00;;;7.80;;
41946;SDS011;27638;42.184;24.848;2022-10-28T07:23:22;19.83;;;8.82;;
41946;SDS011;27638;42.184;24.848;2022-10-28T07:25:54;23.73;;;10.93;;
41946;SDS011;27638;42.184;24.848;2022-10-28T07:28:21;22.98;;;10.82;;
41946;SDS011;27638;42.184;24.848;2022-10-28T07:30:47;20.98;;;10.10;;
41946;SDS011;27638;42.184;24.848;2022-10-28T07:33:13;25.33;;;11.10;;
41946;SDS011;27638;42.184;24.848;2022-10-28T07:35:38;30.13;;;11.77;;
41946;SDS011;27638;42.184;24.848;2022-10-28T07:38:04;25.25;;;14.07;;
41946;SDS011;27638;42.184;24.848;2022-10-28T07:40:29;24.48;;;12.50;;
41946;SDS011;27638;42.184;24.848;2022-10-28T07:42:55;22.13;;;9.68;;
41946;SDS011;27638;42.184;24.848;2022-10-28T07:45:21;20.65;;;9.68;;
41946;SDS011;27638;42.184;24.848;2022-10-28T07:47:47;15.27;;;7.82;;
41946;SDS011;27638;42.184;24.848;2022-10-28T07:50:12;21.13;;;8.10;;
41946;SDS011;27638;42.184;24.848;2022-10-28T07:52:38;24.30;;;8.60;;
41946;SDS011;27638;42.184;24.848;2022-10-28T07:55:03;16.88;;;7.40;;
41946;SDS011;27638;42.184;24.848;2022-10-28T07:57:29;14.80;;;7.85;;
41946;SDS011;27638;42.184;24.848;2022-10-28T07:59:55;19.00;;;7.43;;
41946;SDS011;27638;42.184;24.848;2022-10-28T08:02:22;22.27;;;7.57;;
41946;SDS011;27638;42.184;24.848;2022-10-28T08:04:48;19.80;;;7.22;;
41946;SDS011;27638;42.184;24.848;2022-10-28T08:07:14;13.80;;;6.78;;
41946;SDS011;27638;42.184;24.848;2022-10-28T08:09:40;17.48;;;6.95;;
41946;SDS011;27638;42.184;24.848;2022-10-28T08:12:06;20.60;;;10.38;;
41946;SDS011;27638;42.184;24.848;2022-10-28T08:14:32;16.10;;;6.95;;
41946;SDS011;27638;42.184;24.848;2022-10-28T08:16:59;17.98;;;7.43;;
41946;SDS011;27638;42.184;24.848;2022-10-28T08:19:25;24.65;;;8.70;;
41946;SDS011;27638;42.184;24.848;2022-10-28T08:21:50;27.20;;;9.20;;
41946;SDS011;27638;42.184;24.848;2022-10-28T08:24:16;20.42;;;7.38;;
41946;SDS011;27638;42.184;24.848;2022-10-28T08:26:41;20.77;;;6.55;;
41946;SDS011;27638;42.184;24.848;2022-10-28T08:29:08;17.60;;;6.70;;
41946;SDS011;27638;42.184;24.848;2022-10-28T08:31:34;16.83;;;6.65;;
41946;SDS011;27638;42.184;24.848;2022-10-28T08:33:59;13.38;;;5.78;;
41946;SDS011;27638;42.184;24.848;2022-10-28T08:36:25;14.38;;;7.28;;
41946;SDS011;27638;42.184;24.848;2022-10-28T08:38:50;16.42;;;4.90;;
41946;SDS011;27638;42.184;24.848;2022-10-28T08:49:26;11.32;;;5.18;;
41946;SDS011;27638;42.184;24.848;2022-10-28T08:51:57;17.02;;;5.82;;
41946;SDS011;27638;42.184;24.848;2022-10-28T08:55:18;15.50;;;4.93;;
41946;SDS011;27638;42.184;24.848;2022-10-28T08:57:43;12.15;;;5.97;;
41946;SDS011;27638;42.184;24.848;2022-10-28T09:00:19;12.35;;;5.22;;
41946;SDS011;27638;42.184;24.848;2022-10-28T09:02:56;17.35;;;5.88;;
41946;SDS011;27638;42.184;24.848;2022-10-28T09:05:38;12.32;;;5.40;;
41946;SDS011;27638;42.184;24.848;2022-10-28T09:08:40;13.23;;;6.10;;
41946;SDS011;27638;42.184;24.848;2022-10-28T09:18:56;16.02;;;5.97;;
41946;SDS011;27638;42.184;24.848;2022-10-28T09:21:43;19.90;;;6.25;;
41946;SDS011;27638;42.184;24.848;2022-10-28T09:24:14;21.65;;;6.75;;
41946;SDS011;27638;42.184;24.848;2022-10-28T09:29:56;17.95;;;5.13;;
41946;SDS011;27638;42.184;24.848;2022-10-28T09:35:23;9.70;;;5.40;;
41946;SDS011;27638;42.184;24.848;2022-10-28T09:37:57;19.48;;;9.02;;
41946;SDS011;27638;42.184;24.848;2022-10-28T09:40:31;11.68;;;5.03;;
41946;SDS011;27638;42.184;24.848;2022-10-28T09:45:34;14.15;;;5.53;;
41946;SDS011;27638;42.184;24.848;2022-10-28T09:48:08;14.23;;;5.30;;
41946;SDS011;27638;42.184;24.848;2022-10-28T09:50:43;15.32;;;5.30;;
41946;SDS011;27638;42.184;24.848;2022-10-28T09:55:53;18.17;;;6.22;;
41946;SDS011;27638;42.184;24.848;2022-10-28T09:58:19;16.73;;;5.15;;
41946;SDS011;27638;42.184;24.848;2022-10-28T10:00:45;9.70;;;4.97;;
41946;SDS011;27638;42.184;24.848;2022-10-28T10:03:10;13.35;;;4.82;;
41946;SDS011;27638;42.184;24.848;2022-10-28T10:06:10;11.15;;;4.68;;
41946;SDS011;27638;42.184;24.848;2022-10-28T10:08:35;10.25;;;4.40;;
41946;SDS011;27638;42.184;24.848;2022-10-28T10:11:04;11.50;;;4.68;;
41946;SDS011;27638;42.184;24.848;2022-10-28T10:13:38;10.98;;;4.25;;
41946;SDS011;27638;42.184;24.848;2022-10-28T10:16:12;12.65;;;4.93;;
41946;SDS011;27638;42.184;24.848;2022-10-28T10:18:43;11.63;;;5.82;;
41946;SDS011;27638;42.184;24.848;2022-10-28T10:21:12;23.17;;;9.55;;
41946;SDS011;27638;42.184;24.848;2022-10-28T10:23:40;17.15;;;5.82;;
41946;SDS011;27638;42.184;24.848;2022-10-28T10:26:06;22.38;;;6.93;;
41946;SDS011;27638;42.184;24.848;2022-10-28T10:28:35;16.20;;;4.90;;
41946;SDS011;27638;42.184;24.848;2022-10-28T10:31:03;8.00;;;4.82;;
41946;SDS011;27638;42.184;24.848;2022-10-28T10:33:38;8.27;;;3.85;;
41946;SDS011;27638;42.184;24.848;2022-10-28T10:36:14;11.43;;;3.72;;
41946;SDS011;27638;42.184;24.848;2022-10-28T10:38:45;7.35;;;4.03;;
41946;SDS011;27638;42.184;24.848;2022-10-28T10:41:22;5.20;;;3.42;;
41946;SDS011;27638;42.184;24.848;2022-10-28T10:43:58;11.52;;;4.50;;
41946;SDS011;27638;42.184;24.848;2022-10-28T10:46:23;8.25;;;4.80;;
41946;SDS011;27638;42.184;24.848;2022-10-28T10:48:51;8.63;;;3.55;;
41946;SDS011;27638;42.184;24.848;2022-10-28T10:51:31;6.55;;;3.03;;
41946;SDS011;27638;42.184;24.848;2022-10-28T10:53:57;7.70;;;3.15;;
41946;SDS011;27638;42.184;24.848;2022-10-28T10:56:28;6.65;;;3.13;;
41946;SDS011;27638;42.184;24.848;2022-10-28T10:58:58;4.93;;;3.10;;
41946;SDS011;27638;42.184;24.848;2022-10-28T11:01:27;8.43;;;3.28;;
41946;SDS011;27638;42.184;24.848;2022-10-28T11:04:01;8.05;;;3.63;;
41946;SDS011;27638;42.184;24.848;2022-10-28T11:06:29;12.85;;;3.40;;
41946;SDS011;27638;42.184;24.848;2022-10-28T11:08:57;10.55;;;2.97;;
41946;SDS011;27638;42.184;24.848;2022-10-28T11:11:36;5.85;;;2.80;;
41946;SDS011;27638;42.184;24.848;2022-10-28T11:16:56;7.00;;;2.53;;
41946;SDS011;27638;42.184;24.848;2022-10-28T11:19:22;7.30;;;2.67;;
41946;SDS011;27638;42.184;24.848;2022-10-28T11:24:42;7.35;;;2.95;;
41946;SDS011;27638;42.184;24.848;2022-10-28T11:30:15;10.27;;;2.53;;
41946;SDS011;27638;42.184;24.848;2022-10-28T11:33:05;5.90;;;2.85;;
41946;SDS011;27638;42.184;24.848;2022-10-28T11:35:40;5.32;;;2.83;;
41946;SDS011;27638;42.184;24.848;2022-10-28T11:43:50;8.45;;;2.22;;
41946;SDS011;27638;42.184;24.848;2022-10-28T11:51:33;8.45;;;3.10;;
41946;SDS011;27638;42.184;24.848;2022-10-28T12:20:49;14.65;;;6.45;;
41946;SDS011;27638;42.184;24.848;2022-10-28T12:23:22;14.70;;;6.53;;
41946;SDS011;27638;42.184;24.848;2022-10-28T12:25:54;8.10;;;3.13;;
41946;SDS011;27638;42.184;24.848;2022-10-28T12:28:29;4.68;;;2.63;;
41946;SDS011;27638;42.184;24.848;2022-10-28T12:31:16;8.07;;;3.20;;
41946;SDS011;27638;42.184;24.848;2022-10-28T12:34:03;6.32;;;2.70;;
41946;SDS011;27638;42.184;24.848;2022-10-28T12:36:40;7.13;;;2.88;;
41946;SDS011;27638;42.184;24.848;2022-10-28T12:39:16;8.40;;;2.58;;
41946;SDS011;27638;42.184;24.848;2022-10-28T12:44:23;8.02;;;2.92;;
41946;SDS011;27638;42.184;24.848;2022-10-28T12:56:06;8.20;;;3.00;;
41946;SDS011;27638;42.184;24.848;2022-10-28T12:58:49;11.50;;;3.20;;
41946;SDS011;27638;42.184;24.848;2022-10-28T13:01:16;12.07;;;2.80;;
41946;SDS011;27638;42.184;24.848;2022-10-28T13:03:45;6.43;;;2.70;;
41946;SDS011;27638;42.184;24.848;2022-10-28T13:09:01;15.82;;;5.93;;
41946;SDS011;27638;42.184;24.848;2022-10-28T13:11:46;6.60;;;3.75;;
41946;SDS011;27638;42.184;24.848;2022-10-28T13:17:35;4.65;;;2.67;;
41946;SDS011;27638;42.184;24.848;2022-10-28T13:22:55;7.38;;;3.08;;
41946;SDS011;27638;42.184;24.848;2022-10-28T13:28:17;13.30;;;3.30;;
41946;SDS011;27638;42.184;24.848;2022-10-28T13:30:52;5.07;;;3.28;;
41946;SDS011;27638;42.184;24.848;2022-10-28T13:33:23;5.32;;;3.20;;
41946;SDS011;27638;42.184;24.848;2022-10-28T13:35:51;13.77;;;3.10;;
41946;SDS011;27638;42.184;24.848;2022-10-28T13:38:19;5.72;;;2.83;;
41946;SDS011;27638;42.184;24.848;2022-10-28T13:49:26;7.40;;;3.17;;
41946;SDS011;27638;42.184;24.848;2022-10-28T13:52:02;9.32;;;3.03;;
41946;SDS011;27638;42.184;24.848;2022-10-28T13:57:08;6.97;;;2.70;;
41946;SDS011;27638;42.184;24.848;2022-10-28T14:04:41;6.10;;;2.95;;
41946;SDS011;27638;42.184;24.848;2022-10-28T14:09:36;6.10;;;2.92;;
41946;SDS011;27638;42.184;24.848;2022-10-28T14:14:57;8.23;;;2.80;;
41946;SDS011;27638;42.184;24.848;2022-10-28T14:17:32;6.63;;;3.00;;
41946;SDS011;27638;42.184;24.848;2022-10-28T14:20:00;6.68;;;2.90;;
41946;SDS011;27638;42.184;24.848;2022-10-28T14:22:32;8.55;;;2.83;;
41946;SDS011;27638;42.184;24.848;2022-10-28T14:24:59;8.30;;;3.17;;
41946;SDS011;27638;42.184;24.848;2022-10-28T14:27:26;7.72;;;2.70;;
41946;SDS011;27638;42.184;24.848;2022-10-28T14:35:01;10.30;;;3.80;;
41946;SDS011;27638;42.184;24.848;2022-10-28T14:48:34;5.00;;;3.20;;
41946;SDS011;27638;42.184;24.848;2022-10-28T14:51:08;12.32;;;3.22;;
41946;SDS011;27638;42.184;24.848;2022-10-28T14:53:39;8.07;;;2.88;;
41946;SDS011;27638;42.184;24.848;2022-10-28T14:56:06;6.63;;;3.15;;
41946;SDS011;27638;42.184;24.848;2022-10-28T14:58:42;7.88;;;3.53;;
41946;SDS011;27638;42.184;24.848;2022-10-28T15:03:40;54.53;;;5.07;;
41946;SDS011;27638;42.184;24.848;2022-10-28T15:09:02;17.77;;;3.85;;
41946;SDS011;27638;42.184;24.848;2022-10-28T15:11:31;15.43;;;3.67;;
41946;SDS011;27638;42.184;24.848;2022-10-28T15:13:59;26.02;;;4.45;;
41946;SDS011;27638;42.184;24.848;2022-10-28T15:16:44;14.70;;;3.70;;
41946;SDS011;27638;42.184;24.848;2022-10-28T15:21:38;11.73;;;3.45;;
41946;SDS011;27638;42.184;24.848;2022-10-28T15:24:04;12.82;;;4.13;;
41946;SDS011;27638;42.184;24.848;2022-10-28T15:26:31;17.05;;;4.35;;
41946;SDS011;27638;42.184;24.848;2022-10-28T15:28:56;18.85;;;4.43;;
41946;SDS011;27638;42.184;24.848;2022-10-28T15:31:24;45.65;;;6.00;;
41946;SDS011;27638;42.184;24.848;2022-10-28T15:33:49;51.53;;;6.90;;
41946;SDS011;27638;42.184;24.848;2022-10-28T15:36:16;86.28;;;9.70;;
41946;SDS011;27638;42.184;24.848;2022-10-28T15:38:44;105.68;;;9.82;;
41946;SDS011;27638;42.184;24.848;2022-10-28T15:43:50;104.00;;;18.67;;
41946;SDS011;27638;42.184;24.848;2022-10-28T15:46:18;55.47;;;8.38;;
41946;SDS011;27638;42.184;24.848;2022-10-28T15:48:44;94.53;;;14.90;;
41946;SDS011;27638;42.184;24.848;2022-10-28T15:51:13;112.18;;;20.52;;
41946;SDS011;27638;42.184;24.848;2022-10-28T15:53:41;128.55;;;19.98;;
41946;SDS011;27638;42.184;24.848;2022-10-28T15:58:41;120.80;;;12.97;;
41946;SDS011;27638;42.184;24.848;2022-10-28T16:01:34;95.57;;;10.65;;
41946;SDS011;27638;42.184;24.848;2022-10-28T16:04:03;38.45;;;6.45;;
41946;SDS011;27638;42.184;24.848;2022-10-28T16:06:49;28.85;;;5.55;;
41946;SDS011;27638;42.184;24.848;2022-10-28T16:09:19;26.60;;;6.20;;
41946;SDS011;27638;42.184;24.848;2022-10-28T16:11:49;24.58;;;5.50;;
41946;SDS011;27638;42.184;24.848;2022-10-28T16:14:32;43.10;;;7.80;;
41946;SDS011;27638;42.184;24.848;2022-10-28T16:17:18;28.05;;;6.00;;
41946;SDS011;27638;42.184;24.848;2022-10-28T16:19:56;21.27;;;5.25;;
41946;SDS011;27638;42.184;24.848;2022-10-28T16:22:25;16.42;;;5.40;;
41946;SDS011;27638;42.184;24.848;2022-10-28T16:24:52;21.58;;;5.35;;
41946;SDS011;27638;42.184;24.848;2022-10-28T16:29:44;31.70;;;6.00;;
41946;SDS011;27638;42.184;24.848;2022-10-28T16:32:10;24.33;;;5.75;;
41946;SDS011;27638;42.184;24.848;2022-10-28T16:34:37;29.90;;;5.88;;
41946;SDS011;27638;42.184;24.848;2022-10-28T16:37:02;48.75;;;6.60;;
41946;SDS011;27638;42.184;24.848;2022-10-28T16:39:35;25.95;;;5.40;;
41946;SDS011;27638;42.184;24.848;2022-10-28T16:42:01;27.15;;;5.60;;
41946;SDS011;27638;42.184;24.848;2022-10-28T16:44:26;19.98;;;5.70;;
41946;SDS011;27638;42.184;24.848;2022-10-28T16:46:52;21.75;;;5.20;;
41946;SDS011;27638;42.184;24.848;2022-10-28T16:49:17;28.40;;;6.28;;
41946;SDS011;27638;42.184;24.848;2022-10-28T16:51:43;28.77;;;5.75;;
41946;SDS011;27638;42.184;24.848;2022-10-28T16:54:09;18.63;;;5.60;;
41946;SDS011;27638;42.184;24.848;2022-10-28T16:56:35;26.95;;;5.78;;
41946;SDS011;27638;42.184;24.848;2022-10-28T16:59:00;26.02;;;6.10;;
41946;SDS011;27638;42.184;24.848;2022-10-28T17:01:25;33.95;;;6.28;;
41946;SDS011;27638;42.184;24.848;2022-10-28T17:03:51;30.40;;;6.32;;
41946;SDS011;27638;42.184;24.848;2022-10-28T17:06:16;24.58;;;5.68;;
41946;SDS011;27638;42.184;24.848;2022-10-28T17:08:42;34.70;;;5.90;;
41946;SDS011;27638;42.184;24.848;2022-10-28T17:11:08;21.35;;;6.65;;
41946;SDS011;27638;42.184;24.848;2022-10-28T17:13:38;30.13;;;6.53;;
41946;SDS011;27638;42.184;24.848;2022-10-28T17:16:04;29.00;;;7.85;;
41946;SDS011;27638;42.184;24.848;2022-10-28T17:18:30;25.05;;;7.55;;
41946;SDS011;27638;42.184;24.848;2022-10-28T17:20:59;35.67;;;8.48;;
41946;SDS011;27638;42.184;24.848;2022-10-28T17:23:25;33.72;;;8.23;;
41946;SDS011;27638;42.184;24.848;2022-10-28T17:25:58;26.85;;;8.18;;
41946;SDS011;27638;42.184;24.848;2022-10-28T17:28:24;101.97;;;13.95;;
41946;SDS011;27638;42.184;24.848;2022-10-28T17:30:50;79.55;;;12.00;;
41946;SDS011;27638;42.184;24.848;2022-10-28T17:33:15;53.05;;;10.57;;
41946;SDS011;27638;42.184;24.848;2022-10-28T17:35:41;35.38;;;9.70;;
41946;SDS011;27638;42.184;24.848;2022-10-28T17:38:06;41.78;;;10.70;;
41946;SDS011;27638;42.184;24.848;2022-10-28T17:40:31;42.00;;;11.20;;
41946;SDS011;27638;42.184;24.848;2022-10-28T17:42:57;44.47;;;12.07;;
41946;SDS011;27638;42.184;24.848;2022-10-28T17:45:23;42.88;;;14.25;;
41946;SDS011;27638;42.184;24.848;2022-10-28T17:47:48;46.45;;;12.70;;
41946;SDS011;27638;42.184;24.848;2022-10-28T17:50:14;56.90;;;12.10;;